createdAt,value
2022-07-31T00:01:32.427Z,27.00
2022-07-31T00:04:01.714Z,27.10
2022-07-31T00:06:30.934Z,27.10
2022-07-31T00:09:00.130Z,27.20
2022-07-31T00:11:29.351Z,27.20
2022-07-31T00:13:58.799Z,27.20
2022-07-31T00:16:28.493Z,27.30
2022-07-31T00:18:57.768Z,27.30
2022-07-31T00:21:27.418Z,27.30
2022-07-31T00:23:56.556Z,27.30
2022-07-31T00:26:25.746Z,27.30
2022-07-31T00:28:54.942Z,27.30
2022-07-31T00:31:24.137Z,27.30
2022-07-31T00:33:53.262Z,27.30
2022-07-31T00:36:28.482Z,27.30
2022-07-31T00:39:00.207Z,27.40
2022-07-31T00:41:43.791Z,27.30
2022-07-31T00:44:15.044Z,27.40
2022-07-31T00:46:44.970Z,27.40
2022-07-31T00:49:14.368Z,27.50
2022-07-31T00:51:43.677Z,27.50
2022-07-31T00:54:16.296Z,27.40
2022-07-31T00:56:53.418Z,27.50
2022-07-31T00:59:24.449Z,27.50
2022-07-31T01:01:54.309Z,27.50
2022-07-31T01:04:23.533Z,27.50
2022-07-31T01:06:52.702Z,27.60
2022-07-31T01:09:21.903Z,27.60
2022-07-31T01:12:05.271Z,27.70
2022-07-31T01:14:40.435Z,27.80
2022-07-31T01:17:11.519Z,27.90
2022-07-31T01:19:44.934Z,28.00
2022-07-31T01:22:33.630Z,28.00
2022-07-31T01:25:24.087Z,28.20
2022-07-31T01:28:14.375Z,28.20
2022-07-31T01:31:25.442Z,28.30
2022-07-31T01:34:19.543Z,28.40
2022-07-31T01:36:51.154Z,28.40
2022-07-31T01:39:21.070Z,28.40
2022-07-31T01:41:51.560Z,28.40
2022-07-31T01:44:21.990Z,28.40
2022-07-31T01:46:52.620Z,28.50
2022-07-31T01:49:23.827Z,28.50
2022-07-31T01:51:53.872Z,28.50
2022-07-31T01:54:25.847Z,28.50
2022-07-31T01:56:56.530Z,28.50
2022-07-31T01:59:27.472Z,28.50
2022-07-31T02:02:02.813Z,28.50
2022-07-31T02:04:34.366Z,28.60
2022-07-31T02:07:06.286Z,28.60
2022-07-31T02:09:36.721Z,28.60
2022-07-31T02:12:09.528Z,28.60
2022-07-31T02:14:43.645Z,28.60
2022-07-31T02:17:14.955Z,28.60
2022-07-31T02:19:59.957Z,28.60
2022-07-31T02:22:30.925Z,28.60
2022-07-31T02:25:00.335Z,28.70
2022-07-31T02:27:55.557Z,28.70
2022-07-31T02:30:20.627Z,28.70
2022-07-31T02:32:50.511Z,28.80
2022-07-31T02:35:21.513Z,28.80
2022-07-31T02:37:54.701Z,28.90
2022-07-31T02:40:26.969Z,29.00
2022-07-31T02:42:56.910Z,29.00
2022-07-31T02:45:26.733Z,29.00
2022-07-31T02:47:56.176Z,29.10
2022-07-31T02:50:26.587Z,29.20
2022-07-31T02:52:55.761Z,29.30
2022-07-31T02:55:25.395Z,29.30
2022-07-31T02:57:54.763Z,29.40
2022-07-31T03:00:24.620Z,29.50
2022-07-31T03:02:55.384Z,29.50
2022-07-31T03:05:24.932Z,29.50
2022-07-31T03:07:54.203Z,29.60
2022-07-31T03:10:23.894Z,29.60
2022-07-31T03:12:55.943Z,29.70
2022-07-31T03:15:34.570Z,29.80
2022-07-31T03:18:08.472Z,29.80
2022-07-31T03:20:43.700Z,29.80
2022-07-31T03:26:02.146Z,30.00
2022-07-31T03:28:31.807Z,29.90
2022-07-31T03:31:01.670Z,29.90
2022-07-31T03:33:39.973Z,30.00
2022-07-31T03:36:10.919Z,30.00
2022-07-31T03:38:47.547Z,30.00
2022-07-31T03:41:20.801Z,30.00
2022-07-31T03:43:58.512Z,30.10
2022-07-31T03:46:28.047Z,30.20
2022-07-31T03:48:57.369Z,30.30
2022-07-31T03:51:26.862Z,30.40
2022-07-31T03:53:56.194Z,30.40
2022-07-31T03:56:26.720Z,30.40
2022-07-31T03:58:56.395Z,30.50
2022-07-31T04:01:25.961Z,30.50
2022-07-31T04:04:15.203Z,30.40
2022-07-31T04:06:44.336Z,30.40
2022-07-31T04:09:18.630Z,30.40
2022-07-31T04:11:48.873Z,30.40
2022-07-31T04:14:19.375Z,30.40
2022-07-31T04:16:48.578Z,30.50
2022-07-31T04:19:17.716Z,30.50
2022-07-31T04:21:47.299Z,30.40
2022-07-31T04:24:18.405Z,30.40
2022-07-31T04:26:49.936Z,30.40
2022-07-31T04:29:19.353Z,30.40
2022-07-31T04:31:48.673Z,30.40
2022-07-31T04:34:17.964Z,30.40
2022-07-31T04:36:47.194Z,30.40
2022-07-31T04:39:16.352Z,30.30
2022-07-31T04:41:45.846Z,30.30
2022-07-31T04:44:14.973Z,30.30
2022-07-31T04:46:45.313Z,30.30
2022-07-31T04:49:16.506Z,30.30
2022-07-31T04:51:46.217Z,30.30
2022-07-31T04:54:15.357Z,30.20
2022-07-31T04:56:44.575Z,30.20
2022-07-31T04:59:15.724Z,30.20
2022-07-31T05:01:46.855Z,30.20
2022-07-31T05:04:16.573Z,30.10
2022-07-31T05:06:48.853Z,30.10
2022-07-31T05:09:23.606Z,30.00
2022-07-31T05:11:55.538Z,29.90
2022-07-31T05:14:24.767Z,29.80
2022-07-31T05:16:56.599Z,29.80
2022-07-31T05:19:31.277Z,29.80
2022-07-31T05:22:02.547Z,29.80
2022-07-31T05:24:34.218Z,29.80
2022-07-31T05:27:04.692Z,29.80
2022-07-31T05:29:35.457Z,29.90
2022-07-31T05:32:04.668Z,30.00
2022-07-31T05:34:34.190Z,30.00
2022-07-31T05:37:03.563Z,30.00
2022-07-31T05:39:33.225Z,29.90
2022-07-31T05:42:02.639Z,29.80
2022-07-31T05:44:32.018Z,29.80
2022-07-31T05:49:30.265Z,29.80
2022-07-31T05:51:59.495Z,29.80
2022-07-31T05:54:28.677Z,29.80
2022-07-31T05:56:57.796Z,29.80
2022-07-31T05:59:27.091Z,29.90
2022-07-31T06:01:56.255Z,29.90
2022-07-31T06:04:25.797Z,29.90
2022-07-31T06:06:55.041Z,29.90
2022-07-31T06:09:24.201Z,30.00
2022-07-31T06:11:53.520Z,30.00
2022-07-31T06:14:22.685Z,30.00
2022-07-31T06:16:51.955Z,30.00
2022-07-31T06:19:24.363Z,30.00
2022-07-31T06:21:53.998Z,30.00
2022-07-31T06:24:23.408Z,30.00
2022-07-31T06:26:58.749Z,30.00
2022-07-31T06:29:41.743Z,30.10
2022-07-31T06:32:11.716Z,30.10
2022-07-31T06:34:41.065Z,30.10
2022-07-31T06:37:10.260Z,30.10
2022-07-31T06:39:54.426Z,30.10
2022-07-31T06:42:26.982Z,30.20
2022-07-31T06:44:56.886Z,30.20
2022-07-31T06:47:28.224Z,30.30
2022-07-31T06:49:57.664Z,30.40
2022-07-31T06:52:26.982Z,30.50
2022-07-31T06:54:56.329Z,30.50
2022-07-31T06:57:25.650Z,30.60
2022-07-31T06:59:54.905Z,30.60
2022-07-31T07:02:24.254Z,30.70
2022-07-31T07:05:06.235Z,30.70
2022-07-31T07:07:38.074Z,30.80
2022-07-31T07:10:08.071Z,30.80
2022-07-31T07:12:37.264Z,30.80
2022-07-31T07:15:07.478Z,30.80
2022-07-31T07:17:36.729Z,30.80
2022-07-31T07:20:06.334Z,30.70
2022-07-31T07:22:35.492Z,30.50
2022-07-31T07:25:04.747Z,30.50
2022-07-31T07:27:34.024Z,30.40
2022-07-31T07:30:03.259Z,30.40
2022-07-31T07:32:32.482Z,30.30
2022-07-31T07:35:01.604Z,30.20
2022-07-31T07:40:18.314Z,30.00
2022-07-31T07:42:48.221Z,29.80
2022-07-31T07:45:17.373Z,29.70
2022-07-31T07:47:53.630Z,29.50
2022-07-31T07:50:36.075Z,29.20
2022-07-31T07:53:05.406Z,28.80
2022-07-31T07:55:37.666Z,28.50
2022-07-31T07:58:11.716Z,28.20
2022-07-31T08:00:42.010Z,28.00
2022-07-31T08:03:49.497Z,27.70
2022-07-31T08:06:00.392Z,27.50
2022-07-31T08:08:29.684Z,27.30
2022-07-31T08:10:58.995Z,27.20
2022-07-31T08:13:28.467Z,26.90
2022-07-31T08:15:57.690Z,26.80
2022-07-31T08:18:28.591Z,26.70
2022-07-31T08:20:58.007Z,26.60
2022-07-31T08:23:27.186Z,26.60
2022-07-31T08:25:56.437Z,26.60
2022-07-31T08:28:28.748Z,26.50
2022-07-31T08:30:58.861Z,26.60
2022-07-31T08:33:28.026Z,26.60
2022-07-31T08:35:57.336Z,26.60
2022-07-31T08:38:26.663Z,26.60
2022-07-31T08:40:55.951Z,26.60
2022-07-31T08:44:02.254Z,26.70
2022-07-31T08:46:15.158Z,26.70
2022-07-31T08:48:45.461Z,26.70
2022-07-31T08:51:15.455Z,26.70
2022-07-31T08:53:46.124Z,26.70
2022-07-31T08:56:15.557Z,26.60
2022-07-31T08:58:45.411Z,26.70
2022-07-31T09:01:15.405Z,26.70
2022-07-31T09:03:45.174Z,26.80
2022-07-31T09:06:14.406Z,26.70
2022-07-31T09:08:43.727Z,26.70
2022-07-31T09:11:15.447Z,26.50
2022-07-31T09:14:05.413Z,26.50
2022-07-31T09:16:48.234Z,26.50
2022-07-31T09:19:53.911Z,26.50
2022-07-31T09:22:10.238Z,26.50
2022-07-31T09:24:40.340Z,26.40
2022-07-31T09:27:11.317Z,26.40
2022-07-31T09:29:42.851Z,26.30
2022-07-31T09:32:14.082Z,26.30
2022-07-31T09:34:44.329Z,26.30
2022-07-31T09:37:16.520Z,26.30
2022-07-31T09:39:53.123Z,26.40
2022-07-31T09:42:23.432Z,26.40
2022-07-31T09:44:53.813Z,26.50
2022-07-31T09:47:30.332Z,26.50
2022-07-31T09:50:01.267Z,26.50
2022-07-31T09:52:32.560Z,26.50
2022-07-31T09:55:20.518Z,26.50
2022-07-31T09:57:59.704Z,26.50
2022-07-31T10:00:29.999Z,26.60
2022-07-31T10:02:59.791Z,26.60
2022-07-31T10:05:29.933Z,26.70
2022-07-31T10:08:01.577Z,26.70
2022-07-31T10:10:31.743Z,26.80
2022-07-31T10:13:04.533Z,26.80
2022-07-31T10:15:34.929Z,26.80
2022-07-31T10:18:05.190Z,26.80
2022-07-31T10:20:35.977Z,26.80
2022-07-31T10:23:12.728Z,26.70
2022-07-31T10:25:50.788Z,26.70
2022-07-31T10:28:24.507Z,26.70
2022-07-31T10:30:54.286Z,26.70
2022-07-31T10:33:43.041Z,26.80
2022-07-31T10:36:24.216Z,26.80
2022-07-31T10:39:14.279Z,26.80
2022-07-31T10:41:51.025Z,26.80
2022-07-31T10:44:38.944Z,26.80
2022-07-31T10:47:16.591Z,26.80
2022-07-31T10:49:49.678Z,26.80
2022-07-31T10:52:33.298Z,26.80
2022-07-31T10:55:03.368Z,26.80
2022-07-31T10:57:56.589Z,26.80
2022-07-31T11:00:29.642Z,26.80
2022-07-31T11:03:00.257Z,26.80
2022-07-31T11:05:29.505Z,26.70
2022-07-31T11:08:10.112Z,26.70
2022-07-31T11:10:39.450Z,26.60
2022-07-31T11:13:12.308Z,26.60
2022-07-31T11:15:41.554Z,26.60
2022-07-31T11:18:24.057Z,26.60
2022-07-31T11:21:17.777Z,26.50
2022-07-31T11:23:55.920Z,26.50
2022-07-31T11:26:41.761Z,26.50
2022-07-31T11:30:01.735Z,26.50
2022-07-31T11:32:25.214Z,26.50
2022-07-31T11:34:57.672Z,26.50
2022-07-31T11:37:43.356Z,26.50
2022-07-31T11:40:16.094Z,26.40
2022-07-31T11:42:59.832Z,26.40
2022-07-31T11:45:34.091Z,26.40
2022-07-31T11:48:12.722Z,26.40
2022-07-31T11:50:43.810Z,26.40
2022-07-31T11:53:14.159Z,26.40
2022-07-31T11:55:53.285Z,26.40
2022-07-31T11:58:25.498Z,26.40
2022-07-31T12:01:00.553Z,26.50
2022-07-31T12:03:33.788Z,26.50
2022-07-31T12:06:03.141Z,26.50
2022-07-31T12:08:33.083Z,26.50
2022-07-31T12:11:03.715Z,26.50
2022-07-31T12:13:33.735Z,26.50
2022-07-31T12:16:05.818Z,26.50
2022-07-31T12:18:48.189Z,26.50
2022-07-31T12:21:18.975Z,26.50
2022-07-31T12:23:52.015Z,26.50
2022-07-31T12:26:25.933Z,26.50
2022-07-31T12:29:07.877Z,26.50
2022-07-31T12:31:54.462Z,26.50
2022-07-31T12:34:32.281Z,26.50
2022-07-31T12:37:04.296Z,26.50
2022-07-31T12:39:54.319Z,26.50
2022-07-31T12:42:31.229Z,26.50
2022-07-31T12:45:19.687Z,26.40
2022-07-31T12:47:55.587Z,26.40
2022-07-31T12:50:27.790Z,26.40
2022-07-31T12:53:02.005Z,26.40
2022-07-31T12:55:33.225Z,26.40
2022-07-31T12:58:02.487Z,26.30
2022-07-31T13:00:31.736Z,26.30
2022-07-31T13:03:01.074Z,26.30
2022-07-31T13:05:30.906Z,26.30
2022-07-31T13:08:00.119Z,26.30
2022-07-31T13:10:32.092Z,26.30
2022-07-31T13:13:01.968Z,26.30
2022-07-31T13:15:31.185Z,26.30
2022-07-31T13:18:06.326Z,26.30
2022-07-31T13:20:35.599Z,26.30
2022-07-31T13:23:06.180Z,26.30
2022-07-31T13:25:35.453Z,26.30
2022-07-31T13:28:04.667Z,26.30
2022-07-31T13:30:33.844Z,26.20
2022-07-31T13:33:03.011Z,26.20
2022-07-31T13:35:33.370Z,26.10
2022-07-31T13:38:02.722Z,26.10
2022-07-31T13:40:51.582Z,26.00
2022-07-31T13:43:20.940Z,26.00
2022-07-31T13:45:51.799Z,26.00
2022-07-31T13:48:21.523Z,25.90
2022-07-31T13:50:50.707Z,25.90
2022-07-31T13:53:19.891Z,25.80
2022-07-31T13:55:50.285Z,25.80
2022-07-31T13:58:19.577Z,25.80
2022-07-31T14:00:49.383Z,25.80
2022-07-31T14:03:21.321Z,25.80
2022-07-31T14:05:51.132Z,25.80
2022-07-31T14:08:33.477Z,25.90
2022-07-31T14:11:14.781Z,25.90
2022-07-31T14:13:44.445Z,26.00
2022-07-31T14:16:13.610Z,26.00
2022-07-31T14:18:42.785Z,25.90
2022-07-31T14:21:11.987Z,25.90
2022-07-31T14:23:46.147Z,25.90
2022-07-31T14:26:15.301Z,25.90
2022-07-31T14:28:44.525Z,25.90
2022-07-31T14:31:13.763Z,26.00
2022-07-31T14:33:42.947Z,26.00
2022-07-31T14:36:12.108Z,26.00
2022-07-31T14:38:41.349Z,26.00
2022-07-31T14:41:10.818Z,26.10
2022-07-31T14:43:39.981Z,26.10
2022-07-31T14:46:09.250Z,26.10
2022-07-31T14:48:38.438Z,26.00
2022-07-31T14:51:07.544Z,26.00
2022-07-31T14:53:36.738Z,26.00
2022-07-31T14:56:06.674Z,26.00
2022-07-31T14:58:57.899Z,26.00
2022-07-31T15:01:25.313Z,26.00
2022-07-31T15:03:59.975Z,26.00
2022-07-31T15:06:39.734Z,26.00
2022-07-31T15:09:19.697Z,26.00
2022-07-31T15:12:00.506Z,26.00
2022-07-31T15:14:31.746Z,25.90
2022-07-31T15:17:00.968Z,25.90
2022-07-31T15:19:30.120Z,25.90
2022-07-31T15:22:15.772Z,25.80
2022-07-31T15:24:48.851Z,25.90
2022-07-31T15:27:20.450Z,25.80
2022-07-31T15:30:00.271Z,25.80
2022-07-31T15:32:40.329Z,25.80
2022-07-31T15:35:13.479Z,25.80
2022-07-31T15:37:46.151Z,25.80
2022-07-31T15:40:17.081Z,25.70
2022-07-31T15:42:48.283Z,25.70
2022-07-31T15:45:19.263Z,25.80
2022-07-31T15:47:48.992Z,25.80
2022-07-31T15:50:21.689Z,25.80
2022-07-31T15:52:51.776Z,25.80
2022-07-31T15:55:21.128Z,25.90
2022-07-31T15:57:50.367Z,25.90
2022-07-31T16:00:19.752Z,25.90
2022-07-31T16:02:48.912Z,25.80
2022-07-31T16:05:21.432Z,25.90
2022-07-31T16:08:31.378Z,25.80
2022-07-31T16:10:56.723Z,25.80
2022-07-31T16:13:26.895Z,25.80
2022-07-31T16:15:56.378Z,25.90
2022-07-31T16:18:25.495Z,25.90
2022-07-31T16:20:54.718Z,25.90
2022-07-31T16:23:27.004Z,25.90
2022-07-31T16:25:56.875Z,25.90
2022-07-31T16:28:26.048Z,25.90
2022-07-31T16:30:55.221Z,25.90
2022-07-31T16:33:24.562Z,25.90
2022-07-31T16:35:53.793Z,25.90
2022-07-31T16:38:22.941Z,26.00
2022-07-31T16:40:53.521Z,25.90
2022-07-31T16:43:49.523Z,26.00
2022-07-31T16:46:12.642Z,26.00
2022-07-31T16:48:41.908Z,26.00
2022-07-31T16:51:11.065Z,26.00
2022-07-31T16:54:13.550Z,26.00
2022-07-31T16:56:29.507Z,26.00
2022-07-31T16:59:00.689Z,26.00
2022-07-31T17:01:53.997Z,26.00
2022-07-31T17:04:24.113Z,26.00
2022-07-31T17:06:53.219Z,26.00
2022-07-31T17:09:23.081Z,26.00
2022-07-31T17:11:54.569Z,26.10
2022-07-31T17:14:26.591Z,26.10
2022-07-31T17:16:57.081Z,26.10
2022-07-31T17:19:41.913Z,26.10
2022-07-31T17:22:17.848Z,26.20
2022-07-31T17:24:52.353Z,26.10
2022-07-31T17:27:22.839Z,26.10
2022-07-31T17:29:52.204Z,26.10
2022-07-31T17:32:21.319Z,26.10
2022-07-31T17:34:50.971Z,26.10
2022-07-31T17:37:20.711Z,26.10
2022-07-31T17:39:50.456Z,26.10
2022-07-31T17:42:23.595Z,26.00
2022-07-31T17:44:55.626Z,26.00
2022-07-31T17:47:26.958Z,26.00
2022-07-31T17:49:56.244Z,26.10
2022-07-31T17:52:25.632Z,26.10
2022-07-31T17:54:56.063Z,26.00
2022-07-31T17:57:27.839Z,26.00
2022-07-31T17:59:57.101Z,25.90
2022-07-31T18:02:26.295Z,25.90
2022-07-31T18:04:55.586Z,25.80
2022-07-31T18:07:25.622Z,25.80
2022-07-31T18:09:54.744Z,25.80
2022-07-31T18:12:26.838Z,25.80
2022-07-31T18:14:56.109Z,25.80
2022-07-31T18:17:25.309Z,25.70
2022-07-31T18:19:54.477Z,25.80
2022-07-31T18:22:23.635Z,25.70
2022-07-31T18:24:52.839Z,25.70
2022-07-31T18:27:21.992Z,25.70
2022-07-31T18:29:55.934Z,25.70
2022-07-31T18:32:25.885Z,25.70
2022-07-31T18:34:55.024Z,25.70
2022-07-31T18:37:24.182Z,25.70
2022-07-31T18:39:53.729Z,25.70
2022-07-31T18:42:25.375Z,25.70
2022-07-31T18:44:54.738Z,25.70
2022-07-31T18:47:24.130Z,25.70
2022-07-31T18:51:00.844Z,25.70
2022-07-31T18:52:42.822Z,25.70
2022-07-31T18:55:12.222Z,25.80
2022-07-31T18:57:41.396Z,25.80
2022-07-31T19:00:12.150Z,25.90
2022-07-31T19:02:41.261Z,25.90
2022-07-31T19:05:14.899Z,25.90
2022-07-31T19:07:51.075Z,25.90
2022-07-31T19:10:29.173Z,25.90
2022-07-31T19:13:02.232Z,25.80
2022-07-31T19:15:31.747Z,25.80
2022-07-31T19:18:02.148Z,25.80
2022-07-31T19:20:56.575Z,25.80
2022-07-31T19:23:23.298Z,25.80
2022-07-31T19:26:04.157Z,25.80
2022-07-31T19:28:35.309Z,25.90
2022-07-31T19:31:04.546Z,25.90
2022-07-31T19:33:34.047Z,25.90
2022-07-31T19:36:03.575Z,25.90
2022-07-31T19:38:34.024Z,26.00
2022-07-31T19:41:03.137Z,26.00
2022-07-31T19:43:32.393Z,26.00
2022-07-31T19:46:12.032Z,26.00
2022-07-31T19:48:44.391Z,26.00
2022-07-31T19:51:15.626Z,25.90
2022-07-31T19:53:45.950Z,25.90
2022-07-31T19:56:20.519Z,25.90
2022-07-31T19:58:51.640Z,25.90
2022-07-31T20:01:22.387Z,25.90
2022-07-31T20:03:52.399Z,25.90
2022-07-31T20:06:21.640Z,25.90
2022-07-31T20:08:53.109Z,25.90
2022-07-31T20:11:22.252Z,25.90
2022-07-31T20:13:51.370Z,25.90
2022-07-31T20:16:20.666Z,25.90
2022-07-31T20:18:49.892Z,25.90
2022-07-31T20:21:19.111Z,25.90
2022-07-31T20:23:48.948Z,25.90
2022-07-31T20:26:19.062Z,25.90
2022-07-31T20:28:48.478Z,25.90
2022-07-31T20:31:21.764Z,25.90
2022-07-31T20:33:56.851Z,25.80
2022-07-31T20:36:27.213Z,25.80
2022-07-31T20:38:57.880Z,25.80
2022-07-31T20:41:28.775Z,25.90
2022-07-31T20:43:58.045Z,25.90
2022-07-31T20:46:29.068Z,25.80
2022-07-31T20:49:00.401Z,25.90
2022-07-31T20:51:29.692Z,25.90
2022-07-31T20:53:58.956Z,25.90
2022-07-31T20:56:28.278Z,25.90
2022-07-31T20:58:57.602Z,25.80
2022-07-31T21:01:27.530Z,25.90
2022-07-31T21:03:56.827Z,25.90
2022-07-31T21:06:26.035Z,25.90
2022-07-31T21:08:55.437Z,25.90
2022-07-31T21:11:31.696Z,25.80
2022-07-31T21:14:04.209Z,25.80
2022-07-31T21:16:33.399Z,25.80
2022-07-31T21:19:02.615Z,25.80
2022-07-31T21:21:31.872Z,25.70
2022-07-31T21:24:02.230Z,25.70
2022-07-31T21:26:34.159Z,25.70
2022-07-31T21:29:03.681Z,25.70
2022-07-31T21:31:32.917Z,25.70
2022-07-31T21:34:02.268Z,25.70
2022-07-31T21:36:31.699Z,25.80
2022-07-31T21:39:01.108Z,25.80
2022-07-31T21:41:30.630Z,25.80
2022-07-31T21:44:00.177Z,25.80
2022-07-31T21:46:30.908Z,25.90
2022-07-31T21:49:00.273Z,25.80
2022-07-31T21:51:29.731Z,25.90
2022-07-31T21:53:59.001Z,25.90
2022-07-31T21:56:29.511Z,25.90
2022-07-31T21:58:58.674Z,25.90
2022-07-31T22:01:30.680Z,25.90
2022-07-31T22:03:59.923Z,26.00
2022-07-31T22:06:48.759Z,26.00
2022-07-31T22:09:20.207Z,26.00
2022-07-31T22:12:01.373Z,26.00
2022-07-31T22:14:31.226Z,26.00
2022-07-31T22:17:00.648Z,26.00
2022-07-31T22:19:30.057Z,26.00
2022-07-31T22:21:59.454Z,26.00
2022-07-31T22:24:28.908Z,25.90
2022-07-31T22:27:18.371Z,26.00
2022-07-31T22:29:48.743Z,26.00
2022-07-31T22:32:17.934Z,26.00
2022-07-31T22:34:47.226Z,26.00
2022-07-31T22:37:17.387Z,26.00
2022-07-31T22:39:47.193Z,26.00
2022-07-31T22:42:16.407Z,25.90
2022-07-31T22:44:45.970Z,25.90
2022-07-31T22:47:17.314Z,25.90
2022-07-31T22:49:46.560Z,25.90
2022-07-31T22:52:15.716Z,25.90
2022-07-31T22:54:47.042Z,25.90
2022-07-31T22:57:17.564Z,25.90
2022-07-31T22:59:48.997Z,25.90
2022-07-31T23:02:19.583Z,25.80
2022-07-31T23:04:48.765Z,25.90
2022-07-31T23:07:18.103Z,25.90
2022-07-31T23:09:47.291Z,25.90
2022-07-31T23:12:16.524Z,25.90
2022-07-31T23:14:45.671Z,26.00
2022-07-31T23:17:23.173Z,26.00
2022-07-31T23:19:54.349Z,26.00
2022-07-31T23:22:33.239Z,25.90
2022-07-31T23:25:06.826Z,25.90
2022-07-31T23:27:36.411Z,25.90
2022-07-31T23:30:05.974Z,25.90
2022-07-31T23:32:35.176Z,25.90
2022-07-31T23:35:04.416Z,26.00
2022-07-31T23:37:33.581Z,25.90
2022-07-31T23:40:02.777Z,26.00
2022-07-31T23:42:48.642Z,26.00
2022-07-31T23:45:18.120Z,26.00
2022-07-31T23:47:49.118Z,26.00
2022-07-31T23:50:18.457Z,26.00
2022-07-31T23:52:47.681Z,26.00
2022-07-31T23:55:16.920Z,26.00
2022-07-31T23:57:47.775Z,26.10
